Time;durP1;ratioP1;P1;durP2;ratioP2;P2;SDS_P1;SDS_P2;PMS_P1;PMS_P2;Temp;Humidity;BMP_temperature;BMP_pressure;BME280_temperature;BME280_humidity;BME280_pressure;Samples;Min_cycle;Max_cycle;Signal;HPM_P1;HPM_P2
2021/10/01 00:00:24;;;;;;;1.60;1.50;;;;;;;12.76;70.21;97070.22;4974844;28;20180;-58
2021/10/01 00:02:49;;;;;;;3.33;1.53;;;;;;;12.80;69.60;97068.78;4974552;28;20174;-57
2021/10/01 00:05:15;;;;;;;1.73;1.40;;;;;;;12.77;69.92;97062.09;4974805;28;20523;-57
2021/10/01 00:07:40;;;;;;;3.63;1.37;;;;;;;12.76;70.13;97060.50;4974766;28;20206;-53
2021/10/01 00:10:06;;;;;;;1.90;1.30;;;;;;;12.76;69.81;97062.31;4974820;28;20181;-53
2021/10/01 00:12:32;;;;;;;2.17;1.50;;;;;;;12.74;70.84;97067.00;4974780;28;20186;-59
2021/10/01 00:14:58;;;;;;;2.17;1.20;;;;;;;12.74;71.17;97057.28;4974412;28;20704;-59
2021/10/01 00:17:23;;;;;;;1.50;1.40;;;;;;;12.71;71.31;97057.72;4974649;28;20405;-58
2021/10/01 00:19:49;;;;;;;3.53;3.20;;;;;;;12.71;71.16;97054.28;4975055;28;20174;-53
2021/10/01 00:22:14;;;;;;;2.33;1.50;;;;;;;12.71;71.07;97051.63;4974627;28;20174;-57
2021/10/01 00:24:39;;;;;;;1.93;1.57;;;;;;;12.71;70.65;97049.81;4973145;28;20186;-53
2021/10/01 00:27:10;;;;;;;2.50;1.43;;;;;;;12.69;70.54;97035.22;4975391;28;20318;-53
2021/10/01 00:29:35;;;;;;;4.23;1.60;;;;;;;12.63;70.98;97036.13;4974837;28;20205;-58
2021/10/01 00:32:01;;;;;;;3.10;1.43;;;;;;;12.68;71.26;97038.91;4974828;28;20428;-53
2021/10/01 00:34:26;;;;;;;1.50;1.40;;;;;;;12.69;71.34;97038.69;4974339;28;20637;-53
2021/10/01 00:36:52;;;;;;;2.60;1.40;;;;;;;12.69;71.12;97035.22;4974532;28;20205;-57
2021/10/01 00:39:17;;;;;;;1.90;1.50;;;;;;;12.70;71.43;97034.22;4974724;28;20518;-53
2021/10/01 00:41:43;;;;;;;1.37;1.27;;;;;;;12.74;70.79;97030.09;4974636;28;20178;-53
2021/10/01 00:44:08;;;;;;;1.37;1.27;;;;;;;12.75;70.46;97026.44;4974138;28;20174;-57
2021/10/01 00:46:34;;;;;;;3.73;1.30;;;;;;;12.75;70.49;97018.53;4974563;28;20194;-58
2021/10/01 00:49:00;;;;;;;2.23;1.30;;;;;;;12.70;70.03;97027.09;4975960;28;20198;-58
2021/10/01 00:51:26;;;;;;;2.70;1.70;;;;;;;12.74;70.40;97030.09;4978548;28;20491;-53
2021/10/01 00:53:53;;;;;;;1.47;1.20;;;;;;;12.76;70.25;97025.41;4978127;28;20181;-53
2021/10/01 00:56:20;;;;;;;2.53;1.40;;;;;;;12.76;70.19;97028.03;4978191;28;20425;-57
2021/10/01 00:58:46;;;;;;;4.00;1.80;;;;;;;12.79;70.21;97014.44;4978291;28;20402;-57
2021/10/01 01:01:11;;;;;;;1.80;1.53;;;;;;;12.87;69.71;97020.19;4977352;28;20421;-53
2021/10/01 01:03:56;;;;;;;2.90;1.20;;;;;;;12.82;69.98;97022.69;4977872;28;20177;-57
2021/10/01 01:06:43;;;;;;;1.47;1.37;;;;;;;12.78;69.95;97010.16;4978284;28;20202;-53
2021/10/01 01:09:08;;;;;;;1.40;1.30;;;;;;;12.81;69.53;97004.47;4978094;28;20453;-53
2021/10/01 01:11:51;;;;;;;1.70;1.37;;;;;;;12.81;69.21;96999.19;4978130;28;20413;-58
2021/10/01 01:14:25;;;;;;;4.73;1.30;;;;;;;12.80;68.36;96995.75;4977962;28;20206;-57
2021/10/01 01:16:56;;;;;;;3.77;1.43;;;;;;;12.79;68.42;96998.59;4978115;28;20437;-58
2021/10/01 01:19:37;;;;;;;1.70;1.17;;;;;;;12.83;67.63;96991.84;4976901;28;20421;-57
2021/10/01 01:22:22;;;;;;;3.27;1.43;;;;;;;12.80;68.24;96993.09;4978114;28;20471;-57
2021/10/01 01:25:10;;;;;;;2.20;1.50;;;;;;;12.79;68.21;96988.06;4976509;28;20445;-58
2021/10/01 01:28:06;;;;;;;3.70;1.60;;;;;;;12.86;67.63;96980.84;4977905;28;20500;-53
2021/10/01 01:30:38;;;;;;;3.40;1.27;;;;;;;12.88;67.54;96976.16;4977944;28;20405;-53
2021/10/01 01:33:06;;;;;;;1.33;1.20;;;;;;;12.85;67.41;96984.50;4977560;28;20514;-58
2021/10/01 01:35:34;;;;;;;1.17;1.10;;;;;;;12.93;66.75;96978.94;4977561;28;20441;-53
2021/10/01 01:38:11;;;;;;;1.90;1.50;;;;;;;12.96;67.16;96967.91;4977530;28;20425;-54
2021/10/01 01:40:40;;;;;;;2.13;1.40;;;;;;;12.95;67.72;96969.78;4977832;28;20416;-57
2021/10/01 01:43:09;;;;;;;1.90;1.20;;;;;;;12.95;68.55;96966.31;4977201;28;20476;-53
2021/10/01 01:45:38;;;;;;;0.93;0.93;;;;;;;12.94;68.71;96964.69;4977588;28;20511;-53
2021/10/01 01:48:07;;;;;;;3.00;1.13;;;;;;;13.00;68.81;96966.44;4977535;28;20568;-53
2021/10/01 01:50:33;;;;;;;3.13;1.47;;;;;;;13.01;68.95;96962.75;4977492;28;20413;-58
2021/10/01 01:52:59;;;;;;;1.30;1.20;;;;;;;12.97;68.44;96959.78;4977188;28;20421;-53
2021/10/01 01:55:24;;;;;;;2.00;1.20;;;;;;;12.98;68.38;96952.66;4977345;28;20441;-53
2021/10/01 01:57:52;;;;;;;1.50;1.40;;;;;;;12.96;68.29;96947.63;4977467;28;20177;-53
2021/10/01 02:00:19;;;;;;;2.33;1.20;;;;;;;12.92;66.71;96954.38;4976519;28;20170;-58
2021/10/01 02:02:47;;;;;;;1.73;1.30;;;;;;;12.96;68.08;96944.19;4976894;28;20418;-57
2021/10/01 02:05:14;;;;;;;0.97;0.83;;;;;;;12.97;68.49;96943.94;4976970;28;20480;-53
2021/10/01 02:07:41;;;;;;;1.40;1.30;;;;;;;12.95;66.59;96939.94;4977297;28;20413;-53
2021/10/01 02:10:07;;;;;;;2.30;1.20;;;;;;;13.01;67.47;96944.28;4975831;28;20417;-58
2021/10/01 02:12:33;;;;;;;1.00;0.83;;;;;;;12.96;66.37;96941.53;4977105;28;20498;-58
2021/10/01 02:15:00;;;;;;;1.50;1.40;;;;;;;12.97;67.39;96933.41;4976536;28;20515;-58
2021/10/01 02:17:29;;;;;;;1.27;1.20;;;;;;;13.02;67.96;96930.09;4976844;28;20848;-57
2021/10/01 02:19:57;;;;;;;1.40;1.10;;;;;;;13.03;68.09;96919.34;4977031;28;20417;-53
2021/10/01 02:22:24;;;;;;;1.60;1.30;;;;;;;13.06;67.80;96921.50;4976763;28;20968;-57
2021/10/01 02:24:49;;;;;;;2.20;1.10;;;;;;;13.03;68.00;96923.81;4976444;28;20908;-53
2021/10/01 02:27:18;;;;;;;1.40;1.20;;;;;;;13.03;67.66;96919.34;4976855;28;20420;-58
2021/10/01 02:29:58;;;;;;;2.90;1.40;;;;;;;12.90;66.68;96916.88;4976657;28;20210;-58
2021/10/01 02:32:33;;;;;;;1.20;1.10;;;;;;;12.96;66.69;96897.50;4976873;28;20417;-58
2021/10/01 02:35:00;;;;;;;2.67;1.33;;;;;;;12.90;66.92;96902.91;4976238;28;20437;-53
2021/10/01 02:37:26;;;;;;;0.80;0.80;;;;;;;12.87;66.81;96896.22;4976353;28;20924;-58
2021/10/01 02:39:54;;;;;;;2.80;1.50;;;;;;;12.89;66.88;96910.00;4976598;28;20472;-58
2021/10/01 02:42:21;;;;;;;2.00;1.17;;;;;;;12.82;67.26;96901.38;4976621;28;20425;-58
2021/10/01 02:44:47;;;;;;;1.90;1.70;;;;;;;12.73;67.53;96908.00;4974709;28;20524;-57
2021/10/01 02:47:14;;;;;;;1.40;1.30;;;;;;;12.78;67.46;96896.78;4975087;28;20916;-57
2021/10/01 02:49:40;;;;;;;6.40;1.70;;;;;;;12.64;67.71;96906.72;4976583;28;20461;-59
2021/10/01 02:52:32;;;;;;;1.87;1.20;;;;;;;12.17;70.29;96897.81;4976375;28;20417;-59
2021/10/01 02:55:03;;;;;;;2.33;1.70;;;;;;;11.75;71.80;96904.00;4967694;28;20635;-53
2021/10/01 02:57:45;;;;;;;3.27;1.97;;;;;;;11.36;73.53;96891.19;4976085;28;20417;-53
2021/10/01 03:00:11;;;;;;;2.27;1.83;;;;;;;11.31;74.33;96888.41;4975089;28;20425;-54
2021/10/01 03:02:39;;;;;;;6.80;2.10;;;;;;;11.07;75.67;96897.94;4975857;28;20420;-54
2021/10/01 03:05:05;;;;;;;2.47;1.87;;;;;;;10.90;76.13;96893.44;4976177;28;20444;-59
2021/10/01 03:07:34;;;;;;;2.10;1.70;;;;;;;10.86;77.16;96890.44;4975872;28;20926;-54
2021/10/01 03:10:03;;;;;;;1.67;1.57;;;;;;;10.97;76.77;96891.56;4976132;28;20827;-54
2021/10/01 03:12:30;;;;;;;3.50;1.70;;;;;;;10.78;77.55;96892.53;4976132;28;20412;-59
2021/10/01 03:14:56;;;;;;;2.00;1.70;;;;;;;10.85;77.40;96888.03;4975525;28;20935;-53
2021/10/01 03:17:22;;;;;;;1.57;1.47;;;;;;;11.03;76.56;96890.72;4975968;28;20413;-53
2021/10/01 03:19:49;;;;;;;2.17;1.80;;;;;;;10.98;76.49;96883.44;4975915;28;20663;-59
2021/10/01 03:22:17;;;;;;;2.03;1.50;;;;;;;11.13;75.91;96881.31;4975814;28;20420;-58
2021/10/01 03:24:43;;;;;;;2.20;1.70;;;;;;;11.19;75.60;96885.72;4975469;28;20784;-53
2021/10/01 03:27:09;;;;;;;2.37;1.60;;;;;;;11.28;75.17;96881.78;4975865;28;20417;-58
2021/10/01 03:29:36;;;;;;;2.83;2.03;;;;;;;11.36;74.29;96878.03;4975707;28;20465;-58
2021/10/01 03:32:03;;;;;;;1.93;1.83;;;;;;;11.35;74.17;96879.06;4975788;28;20277;-58
2021/10/01 03:34:29;;;;;;;2.10;1.83;;;;;;;11.30;74.45;96881.56;4975030;28;20416;-54
2021/10/01 03:36:55;;;;;;;1.90;1.70;;;;;;;11.43;74.22;96875.38;4975449;28;20428;-54
2021/10/01 03:39:22;;;;;;;1.70;1.57;;;;;;;11.48;73.73;96876.31;4975607;28;20410;-58
2021/10/01 03:41:48;;;;;;;1.63;1.53;;;;;;;11.49;73.72;96872.66;4975487;28;20224;-58
2021/10/01 03:44:13;;;;;;;3.63;1.43;;;;;;;11.66;73.32;96876.38;4975092;28;20409;-58
2021/10/01 03:46:39;;;;;;;5.10;1.50;;;;;;;11.55;73.09;96873.63;4975396;28;20434;-54
2021/10/01 03:49:04;;;;;;;3.50;1.57;;;;;;;11.66;72.74;96879.00;4975108;28;20204;-58
2021/10/01 03:51:30;;;;;;;1.63;1.53;;;;;;;11.57;72.94;96872.38;4975140;28;20171;-54
2021/10/01 03:53:56;;;;;;;3.80;1.87;;;;;;;11.51;73.42;96869.81;4974868;28;20544;-58
2021/10/01 03:56:22;;;;;;;4.33;1.80;;;;;;;11.53;72.94;96873.03;4975119;28;20285;-58
2021/10/01 03:58:48;;;;;;;2.10;1.60;;;;;;;11.62;72.61;96869.88;4975302;28;20411;-58
2021/10/01 04:01:15;;;;;;;4.70;1.90;;;;;;;11.59;72.55;96867.72;4975182;28;20412;-58
2021/10/01 04:03:41;;;;;;;1.20;1.20;;;;;;;11.62;72.66;96869.88;4974712;28;20772;-54
2021/10/01 04:06:06;;;;;;;3.00;2.23;;;;;;;11.43;73.07;96863.81;4975102;28;20436;-58
2021/10/01 04:08:32;;;;;;;2.03;1.70;;;;;;;11.54;72.96;96859.63;4974896;28;20604;-54
2021/10/01 04:10:58;;;;;;;1.70;1.53;;;;;;;11.64;72.44;96856.50;4975053;28;20182;-58
2021/10/01 04:13:23;;;;;;;1.83;1.73;;;;;;;11.73;72.08;96853.41;4974661;28;20201;-53
2021/10/01 04:15:49;;;;;;;1.60;1.50;;;;;;;11.75;71.77;96853.97;4974953;28;20668;-58
2021/10/01 04:18:15;;;;;;;1.83;1.40;;;;;;;11.74;72.32;96852.34;4974987;28;20506;-58
2021/10/01 04:20:43;;;;;;;3.40;1.70;;;;;;;11.86;71.90;96847.16;4974978;28;20170;-59
2021/10/01 04:23:08;;;;;;;2.63;1.93;;;;;;;11.93;71.20;96846.06;4974219;28;20259;-58
2021/10/01 04:25:34;;;;;;;1.93;1.83;;;;;;;11.90;71.28;96845.72;4974841;28;20545;-54
2021/10/01 04:28:00;;;;;;;1.60;1.50;;;;;;;11.92;70.96;96841.03;4974847;28;20193;-54
2021/10/01 04:30:26;;;;;;;3.63;2.20;;;;;;;11.84;71.14;96841.31;4974667;28;20417;-58
2021/10/01 04:33:02;;;;;;;2.53;1.67;;;;;;;11.66;72.16;96844.78;4974413;28;20186;-54
2021/10/01 04:35:28;;;;;;;2.30;1.50;;;;;;;11.63;72.03;96839.91;4974782;28;20437;-58
2021/10/01 04:37:54;;;;;;;1.90;1.80;;;;;;;11.72;72.08;96840.47;4974542;28;20425;-54
2021/10/01 04:40:19;;;;;;;4.70;2.07;;;;;;;11.57;72.59;96840.00;4974755;28;20198;-58
2021/10/01 04:42:44;;;;;;;1.93;1.73;;;;;;;11.66;72.19;96842.16;4974386;28;20189;-58
2021/10/01 04:45:10;;;;;;;2.10;2.00;;;;;;;11.71;72.27;96850.19;4973187;28;20391;-58
2021/10/01 04:47:37;;;;;;;1.87;1.67;;;;;;;11.75;72.11;96845.28;4974586;28;20189;-58
2021/10/01 04:50:05;;;;;;;1.77;1.67;;;;;;;11.81;71.57;96844.41;4974450;28;20506;-58
2021/10/01 04:52:31;;;;;;;1.57;1.47;;;;;;;11.89;71.02;96849.34;4974412;28;20405;-54
2021/10/01 04:54:56;;;;;;;3.80;1.67;;;;;;;11.88;72.11;96847.75;4974165;28;20441;-54
2021/10/01 04:57:21;;;;;;;2.87;1.80;;;;;;;11.98;71.23;96842.75;4974586;28;20282;-58
2021/10/01 04:59:47;;;;;;;3.27;1.80;;;;;;;12.05;70.69;96846.09;4974583;28;20175;-54
2021/10/01 05:02:12;;;;;;;2.17;2.00;;;;;;;12.11;70.52;96843.41;4974476;28;20542;-54
2021/10/01 05:04:38;;;;;;;4.00;1.93;;;;;;;12.14;71.07;96845.56;4974168;28;20630;-54
2021/10/01 05:07:03;;;;;;;2.00;1.57;;;;;;;12.17;71.45;96850.38;4974576;28;20178;-54
2021/10/01 05:09:29;;;;;;;4.67;1.97;;;;;;;12.19;71.60;96845.72;4974464;28;20216;-54
2021/10/01 05:11:54;;;;;;;2.43;2.00;;;;;;;12.23;71.45;96843.44;4974328;28;20178;-54
2021/10/01 05:14:19;;;;;;;2.37;2.23;;;;;;;12.11;70.75;96850.50;4973962;28;20175;-58
2021/10/01 05:16:45;;;;;;;2.30;1.83;;;;;;;12.05;71.17;96846.91;4974386;28;20190;-54
2021/10/01 05:19:11;;;;;;;3.27;1.80;;;;;;;12.09;70.87;96840.19;4974185;28;20610;-58
2021/10/01 05:21:36;;;;;;;2.90;1.80;;;;;;;12.26;70.92;96850.91;4974402;28;20174;-54
2021/10/01 05:24:02;;;;;;;2.90;2.40;;;;;;;12.31;71.26;96849.22;4973859;28;20229;-58
2021/10/01 05:26:27;;;;;;;5.20;2.13;;;;;;;12.27;71.18;96853.31;4974303;28;20202;-58
2021/10/01 05:28:55;;;;;;;5.67;2.97;;;;;;;12.26;71.05;96851.72;4974202;28;21039;-60
2021/10/01 05:31:20;;;;;;;3.57;3.00;;;;;;;12.25;70.99;96847.47;4974301;28;20174;-58
2021/10/01 05:33:46;;;;;;;3.17;2.80;;;;;;;12.25;71.33;96846.66;4973948;28;20421;-54
2021/10/01 05:36:11;;;;;;;5.57;2.97;;;;;;;12.24;70.54;96851.13;4975853;28;20695;-54
2021/10/01 05:38:37;;;;;;;4.73;3.20;;;;;;;12.22;71.15;96847.91;4977729;28;20218;-53
2021/10/01 05:41:02;;;;;;;2.73;2.50;;;;;;;12.22;71.13;96845.28;4977694;28;20197;-58
2021/10/01 05:43:27;;;;;;;3.87;2.73;;;;;;;12.14;71.60;96848.22;4977453;28;20184;-59
2021/10/01 05:45:54;;;;;;;3.80;2.60;;;;;;;12.12;71.77;96845.00;4977464;28;20202;-54
2021/10/01 05:48:22;;;;;;;3.50;2.93;;;;;;;12.17;70.78;96844.34;4977392;28;20197;-54
2021/10/01 05:50:53;;;;;;;7.20;3.03;;;;;;;12.15;71.32;96846.38;4977434;28;20414;-58
2021/10/01 05:53:47;;;;;;;4.07;2.83;;;;;;;12.09;71.91;96834.09;4977044;28;20517;-58
2021/10/01 05:56:14;;;;;;;3.80;2.37;;;;;;;12.08;72.20;96835.13;4977227;28;20432;-54
2021/10/01 05:58:41;;;;;;;3.10;2.43;;;;;;;12.02;72.39;96839.47;4977929;28;20413;-54
2021/10/01 06:01:07;;;;;;;4.87;2.50;;;;;;;12.02;72.55;96836.84;4977235;28;20912;-53
2021/10/01 06:03:33;;;;;;;4.23;2.73;;;;;;;12.05;71.78;96843.47;4976842;28;20444;-58
2021/10/01 06:05:58;;;;;;;3.50;2.50;;;;;;;12.00;70.85;96838.06;4976992;28;20465;-58
2021/10/01 06:08:24;;;;;;;3.23;2.30;;;;;;;11.92;71.37;96844.44;4977136;28;20202;-53
2021/10/01 06:10:49;;;;;;;3.70;2.53;;;;;;;11.75;71.63;96840.00;4977228;28;20680;-58
2021/10/01 06:13:15;;;;;;;2.30;2.10;;;;;;;11.76;72.07;96839.78;4976644;28;20221;-54
2021/10/01 06:15:41;;;;;;;3.80;2.13;;;;;;;11.69;72.03;96843.50;4976906;28;20672;-54
2021/10/01 06:18:06;;;;;;;4.23;2.10;;;;;;;11.68;71.93;96832.19;4977095;28;20417;-58
2021/10/01 06:20:31;;;;;;;11.83;2.43;;;;;;;11.59;72.64;96836.13;4976984;28;20216;-59
2021/10/01 06:22:57;;;;;;;5.10;2.10;;;;;;;11.78;72.54;96836.94;4976750;28;20180;-54
2021/10/01 06:25:22;;;;;;;3.27;2.43;;;;;;;11.79;72.93;96822.75;4976783;28;20205;-54
2021/10/01 06:27:49;;;;;;;6.60;2.27;;;;;;;11.86;72.12;96826.09;4976876;28;20300;-54
2021/10/01 06:30:15;;;;;;;3.73;2.80;;;;;;;11.94;71.99;96823.97;4976726;28;20174;-54
2021/10/01 06:32:41;;;;;;;3.83;2.47;;;;;;;12.01;71.85;96829.16;4976347;28;20444;-54
2021/10/01 06:35:07;;;;;;;7.50;2.83;;;;;;;12.03;72.48;96832.38;4976516;28;20444;-58
2021/10/01 06:37:33;;;;;;;5.50;2.80;;;;;;;12.16;72.31;96829.53;4976714;28;20190;-59
2021/10/01 06:39:59;;;;;;;6.90;3.50;;;;;;;12.26;73.19;96833.28;4976663;28;20485;-54
2021/10/01 06:42:25;;;;;;;5.33;3.40;;;;;;;12.33;73.52;96823.44;4976696;28;20606;-53
2021/10/01 06:44:54;;;;;;;9.57;3.60;;;;;;;12.38;73.85;96822.75;4976207;28;20198;-54
2021/10/01 06:47:47;;;;;;;10.43;4.03;;;;;;;12.45;73.87;96822.66;4976166;28;20444;-59
2021/10/01 06:53:08;;;;;;;4.97;3.83;;;;;;;12.58;74.68;96827.72;4976117;28;20417;-54
2021/10/01 07:23:15;;;;;;;3.33;1.63;;;;;;;13.13;71.52;96806.16;4975532;28;20408;-54
2021/10/01 08:20:24;;;;;;;1.53;1.43;;;;;;;14.41;68.20;96804.75;4974853;28;20405;-59
2021/10/01 08:22:50;;;;;;;2.27;1.40;;;;;;;14.33;66.85;96801.69;4974437;28;20413;-54
2021/10/01 08:25:15;;;;;;;4.23;2.30;;;;;;;14.25;67.71;96805.50;4974659;28;20194;-54
2021/10/01 08:27:41;;;;;;;4.43;1.60;;;;;;;14.32;68.36;96806.19;4974792;28;20178;-54
2021/10/01 08:30:08;;;;;;;3.10;1.63;;;;;;;14.50;67.78;96796.41;4974740;28;20166;-53
2021/10/01 08:32:35;;;;;;;2.43;1.50;;;;;;;14.67;68.17;96792.75;4974851;28;20166;-54
2021/10/01 08:35:01;;;;;;;2.90;1.70;;;;;;;14.74;68.14;96793.41;4974753;28;20433;-60
2021/10/01 08:37:26;;;;;;;1.90;1.53;;;;;;;14.66;66.69;96793.78;4974636;28;20423;-58
2021/10/01 08:39:52;;;;;;;3.63;1.20;;;;;;;14.83;66.59;96796.44;4974844;28;20171;-58
2021/10/01 08:42:17;;;;;;;1.73;1.63;;;;;;;14.98;66.83;96788.72;4974557;28;20202;-54
2021/10/01 08:44:43;;;;;;;2.80;1.57;;;;;;;15.12;66.78;96788.16;4974319;28;20166;-58
2021/10/01 08:47:10;;;;;;;2.97;1.57;;;;;;;15.34;66.76;96780.25;4974700;28;20534;-58
2021/10/01 08:49:39;;;;;;;2.10;1.30;;;;;;;15.41;66.83;96788.84;4974612;28;20201;-54
2021/10/01 08:52:07;;;;;;;1.50;1.40;;;;;;;15.45;66.71;96782.00;4974676;28;20927;-54
2021/10/01 08:54:33;;;;;;;2.70;1.70;;;;;;;15.57;67.25;96774.72;4972835;28;20999;-58
2021/10/01 08:56:58;;;;;;;1.17;1.17;;;;;;;15.71;67.89;96775.97;4974543;28;20409;-58
2021/10/01 08:59:24;;;;;;;5.07;1.43;;;;;;;15.83;67.62;96767.88;4974558;28;20251;-59
2021/10/01 09:01:49;;;;;;;1.47;1.37;;;;;;;15.83;65.38;96770.53;4974575;28;20181;-58
2021/10/01 09:04:15;;;;;;;1.83;1.40;;;;;;;15.84;64.50;96769.47;4974086;28;20177;-54
2021/10/01 09:06:40;;;;;;;2.40;1.10;;;;;;;16.02;64.37;96759.34;4974350;28;20537;-58
2021/10/01 09:09:06;;;;;;;1.60;1.50;;;;;;;16.01;64.26;96764.91;4974530;28;20208;-54
2021/10/01 09:11:35;;;;;;;1.33;1.23;;;;;;;16.09;63.61;96764.44;4978332;28;20178;-54
2021/10/01 09:14:09;;;;;;;4.83;1.80;;;;;;;15.91;64.22;96762.94;4977756;28;20272;-58
2021/10/01 09:16:36;;;;;;;1.00;1.00;;;;;;;16.12;63.77;96756.00;4977974;28;20440;-54
2021/10/01 09:19:04;;;;;;;2.17;1.20;;;;;;;16.30;64.08;96745.84;4978047;28;20413;-54
2021/10/01 09:21:30;;;;;;;1.07;0.97;;;;;;;16.44;63.93;96744.38;4978153;28;20420;-54
2021/10/01 09:24:04;;;;;;;3.20;1.07;;;;;;;16.56;64.36;96743.44;4977483;28;20413;-54
2021/10/01 09:26:32;;;;;;;1.83;1.20;;;;;;;16.67;64.12;96735.28;4977754;28;20428;-54
2021/10/01 09:29:05;;;;;;;1.90;1.13;;;;;;;16.83;63.98;96733.53;4977663;28;20820;-58
2021/10/01 09:31:39;;;;;;;1.67;1.10;;;;;;;16.85;62.42;96734.88;4977712;28;20417;-59
2021/10/01 09:34:13;;;;;;;2.30;1.40;;;;;;;16.98;61.37;96728.31;4977619;28;20409;-54
2021/10/01 09:36:41;;;;;;;3.43;1.17;;;;;;;17.15;61.39;96731.63;4977716;28;20820;-54
2021/10/01 09:39:07;;;;;;;1.70;1.20;;;;;;;17.11;61.18;96722.56;4977557;28;20504;-54
2021/10/01 09:41:36;;;;;;;1.50;1.40;;;;;;;17.26;60.13;96728.75;4977567;28;20893;-54
2021/10/01 09:44:11;;;;;;;1.10;1.00;;;;;;;17.49;60.21;96719.59;4977215;28;20401;-59
2021/10/01 09:46:44;;;;;;;1.63;1.10;;;;;;;17.64;59.52;96718.84;4977757;28;20469;-54
2021/10/01 09:49:14;;;;;;;0.83;0.80;;;;;;;17.78;57.09;96709.31;4977572;28;20807;-54
2021/10/01 09:51:45;;;;;;;1.40;1.03;;;;;;;17.89;57.75;96714.41;4977540;28;20476;-54
2021/10/01 09:54:13;;;;;;;1.30;1.07;;;;;;;17.92;55.62;96705.06;4977172;28;20416;-54
2021/10/01 09:56:40;;;;;;;4.07;1.40;;;;;;;17.88;56.43;96709.34;4977313;28;20437;-59
2021/10/01 09:59:16;;;;;;;1.60;0.90;;;;;;;17.99;56.08;96706.41;4977455;28;20444;-60
2021/10/01 10:02:07;;;;;;;1.53;1.13;;;;;;;18.02;55.74;96691.81;4977489;28;20416;-60
2021/10/01 10:04:35;;;;;;;1.40;1.30;;;;;;;18.31;56.86;96685.72;4977006;28;20481;-58
2021/10/01 10:07:09;;;;;;;1.47;1.37;;;;;;;18.13;55.85;96680.94;4977170;28;20500;-54
2021/10/01 10:09:38;;;;;;;2.47;1.00;;;;;;;18.18;55.17;96686.25;4976245;28;20817;-54
2021/10/01 10:12:04;;;;;;;1.37;1.27;;;;;;;18.04;53.87;96679.06;4977160;28;20441;-59
2021/10/01 10:14:34;;;;;;;1.03;1.00;;;;;;;18.13;56.38;96674.81;4976524;28;20453;-59
2021/10/01 10:17:01;;;;;;;2.30;1.27;;;;;;;18.09;56.03;96674.53;4976949;28;20445;-59
2021/10/01 10:19:30;;;;;;;2.70;1.40;;;;;;;18.21;56.35;96677.72;4976968;28;20901;-59
2021/10/01 10:21:58;;;;;;;4.57;1.33;;;;;;;18.36;55.30;96666.28;4976251;28;20504;-59
2021/10/01 10:24:24;;;;;;;1.63;1.03;;;;;;;18.53;56.07;96668.72;4976550;28;20897;-54
2021/10/01 10:26:49;;;;;;;0.90;0.80;;;;;;;18.44;54.14;96665.78;4976880;28;20440;-54
2021/10/01 10:29:15;;;;;;;2.00;1.23;;;;;;;18.67;55.42;96661.75;4975367;28;20458;-59
2021/10/01 10:31:46;;;;;;;1.63;1.07;;;;;;;18.81;58.08;96654.81;4976961;28;20177;-54
2021/10/01 10:34:54;;;;;;;1.50;1.10;;;;;;;18.84;54.88;96660.38;4976536;28;20216;-59
2021/10/01 10:37:41;;;;;;;2.83;1.10;;;;;;;19.09;53.77;96662.19;4970819;28;20430;-55
2021/10/01 10:40:12;;;;;;;1.90;1.03;;;;;;;19.25;54.94;96653.06;4976605;28;20516;-60
2021/10/01 10:42:44;;;;;;;2.00;0.93;;;;;;;19.32;53.97;96656.28;4976332;28;20569;-59
2021/10/01 10:45:24;;;;;;;2.97;0.90;;;;;;;19.57;55.22;96655.38;4976578;28;20433;-54
2021/10/01 10:48:01;;;;;;;0.90;0.90;;;;;;;19.46;51.87;96654.59;4976542;28;20432;-55
2021/10/01 10:50:41;;;;;;;2.00;0.83;;;;;;;19.61;51.03;96649.19;4976594;28;20420;-54
2021/10/01 10:55:41;;;;;;;1.63;1.10;;;;;;;19.62;50.92;96650.00;4976475;28;20437;-55
2021/10/01 10:58:22;;;;;;;1.60;1.27;;;;;;;19.74;49.64;96643.25;4976278;28;20224;-54
2021/10/01 11:00:48;;;;;;;1.33;1.23;;;;;;;19.87;48.87;96639.16;4976403;28;20413;-59
2021/10/01 11:03:19;;;;;;;3.53;1.00;;;;;;;19.81;49.35;96643.75;4975695;28;20421;-54
2021/10/01 11:06:13;;;;;;;3.43;1.30;;;;;;;19.98;50.53;96636.16;4976012;28;20434;-54
2021/10/01 11:08:41;;;;;;;2.63;1.00;;;;;;;20.04;48.38;96627.03;4976138;28;20548;-55
2021/10/01 11:11:29;;;;;;;2.07;1.13;;;;;;;20.30;50.18;96630.31;4976247;28;20427;-54
2021/10/01 11:14:13;;;;;;;1.93;1.00;;;;;;;20.30;46.25;96625.78;4975635;28;20447;-54
2021/10/01 11:16:39;;;;;;;2.83;1.50;;;;;;;20.40;44.86;96628.34;4976012;28;20461;-54
2021/10/01 11:19:05;;;;;;;1.77;0.93;;;;;;;20.44;44.41;96624.06;4975758;28;20469;-54
2021/10/01 11:21:42;;;;;;;0.77;0.70;;;;;;;20.45;42.57;96622.97;4975715;28;20410;-58
2021/10/01 11:24:34;;;;;;;1.00;0.90;;;;;;;20.49;44.97;96613.31;4975434;28;20184;-54
2021/10/01 11:26:59;;;;;;;1.30;0.90;;;;;;;20.78;48.05;96610.63;4974636;28;20512;-54
2021/10/01 11:29:27;;;;;;;3.70;1.17;;;;;;;20.89;45.62;96612.09;4975835;28;20540;-54
2021/10/01 11:32:03;;;;;;;2.63;1.00;;;;;;;20.95;43.94;96602.16;4975553;28;20213;-58
2021/10/01 11:34:45;;;;;;;1.20;1.03;;;;;;;20.93;43.22;96596.28;4974550;28;20780;-55
2021/10/01 11:37:29;;;;;;;1.80;1.07;;;;;;;21.17;44.21;96597.09;4975601;28;20418;-54
2021/10/01 11:40:06;;;;;;;1.53;0.90;;;;;;;20.99;41.62;96595.16;4975595;28;20424;-54
2021/10/01 11:42:40;;;;;;;1.37;0.90;;;;;;;21.08;41.96;96577.44;4975609;28;20426;-54
2021/10/01 11:45:08;;;;;;;3.00;2.70;;;;;;;21.35;43.79;96582.97;4975703;28;20429;-59
2021/10/01 11:47:33;;;;;;;3.13;1.10;;;;;;;21.37;43.13;96575.47;4975512;28;20416;-54
2021/10/01 11:49:59;;;;;;;1.27;1.00;;;;;;;21.34;42.03;96576.03;4975298;28;20551;-59
2021/10/01 11:52:27;;;;;;;1.50;1.10;;;;;;;21.37;41.62;96562.88;4975365;28;20182;-54
2021/10/01 11:54:56;;;;;;;1.80;1.20;;;;;;;21.35;41.87;96572.28;4974807;28;20194;-54
2021/10/01 11:57:22;;;;;;;1.30;1.00;;;;;;;21.43;42.76;96556.38;4973958;28;20835;-59
2021/10/01 12:00:04;;;;;;;0.90;0.83;;;;;;;21.60;40.37;96555.88;4975524;28;20500;-60
2021/10/01 12:02:32;;;;;;;1.87;1.77;;;;;;;21.72;42.77;96550.88;4975253;28;20409;-55
2021/10/01 12:04:58;;;;;;;2.00;1.33;;;;;;;21.90;40.97;96543.94;4974752;28;20465;-60
2021/10/01 12:07:24;;;;;;;1.40;1.03;;;;;;;22.16;43.88;96545.88;4974957;28;20516;-60
2021/10/01 12:10:07;;;;;;;1.93;1.20;;;;;;;22.30;40.05;96549.38;4975661;28;20561;-60
2021/10/01 12:12:33;;;;;;;2.50;1.00;;;;;;;22.19;34.91;96537.25;4975202;28;20496;-60
2021/10/01 12:14:58;;;;;;;0.80;0.80;;;;;;;22.37;35.26;96532.94;4974623;28;20468;-60
2021/10/01 12:17:24;;;;;;;1.13;0.90;;;;;;;22.22;35.56;96530.53;4974996;28;20418;-55
2021/10/01 12:19:49;;;;;;;1.07;0.90;;;;;;;22.23;37.78;96527.53;4974753;28;20177;-54
2021/10/01 12:22:17;;;;;;;2.60;0.90;;;;;;;22.40;36.85;96529.66;4975037;28;20517;-59
2021/10/01 12:24:51;;;;;;;1.90;0.80;;;;;;;22.67;39.70;96523.53;4974400;28;20265;-54
2021/10/01 12:27:19;;;;;;;1.70;1.10;;;;;;;22.73;35.36;96519.69;4974907;28;20412;-59
2021/10/01 12:29:49;;;;;;;1.73;1.00;;;;;;;22.52;35.29;96525.41;4974546;28;20481;-54
2021/10/01 12:32:17;;;;;;;2.50;1.13;;;;;;;22.59;35.17;96516.22;4974801;28;20416;-58
2021/10/01 12:34:50;;;;;;;1.60;0.83;;;;;;;22.62;37.32;96518.28;4974009;28;20436;-61
2021/10/01 12:37:23;;;;;;;1.50;0.93;;;;;;;22.68;36.13;96520.59;4974631;28;20488;-61
2021/10/01 12:39:55;;;;;;;1.10;1.00;;;;;;;22.85;37.90;96522.63;4974633;28;20903;-53
2021/10/01 12:42:26;;;;;;;1.90;1.50;;;;;;;22.99;40.00;96510.81;4974786;28;20418;-60
2021/10/01 12:44:58;;;;;;;1.27;1.10;;;;;;;23.13;36.85;96508.13;4975379;28;20943;-59
2021/10/01 12:47:24;;;;;;;1.20;1.10;;;;;;;23.15;34.84;96512.09;4978568;28;20410;-54
2021/10/01 12:50:08;;;;;;;1.97;0.87;;;;;;;22.98;35.70;96508.44;4978693;28;20464;-54
2021/10/01 12:52:35;;;;;;;2.67;1.20;;;;;;;22.96;36.92;96511.41;4978634;28;20180;-60
2021/10/01 12:55:06;;;;;;;1.67;1.20;;;;;;;22.97;36.95;96507.63;4978528;28;20441;-54
2021/10/01 12:57:38;;;;;;;3.27;1.30;;;;;;;22.81;37.41;96501.00;4978462;28;20429;-61
2021/10/01 13:00:03;;;;;;;1.83;1.27;;;;;;;23.02;37.70;96506.75;4978509;28;20846;-61
2021/10/01 13:02:34;;;;;;;2.00;1.43;;;;;;;23.14;38.77;96498.97;4978579;28;20504;-62
2021/10/01 13:05:10;;;;;;;1.83;1.50;;;;;;;23.32;39.75;96490.00;4978256;28;20209;-53
2021/10/01 13:07:37;;;;;;;2.43;1.57;;;;;;;23.46;38.35;96485.41;4978434;28;20424;-53
2021/10/01 13:10:28;;;;;;;3.63;1.50;;;;;;;23.70;38.04;96480.50;4978315;28;20952;-58